Silverville, Indiana
Current Conditions -  °F | °C
As of 10:55 PM on Sunday 23 Nov 2014 (Local Time) from KDCY Reporting Station
Light Rain Light Rain  
Wind Chill: 57°   Ceiling: 1200
Heat Index: 57°   Visibility: 10mi
Dew Point: 57°   Wind: 20mph
Humidity: 100%   Direction: 220°SW
Pressure: 29.24"   Gusts: 25mph
Location:  38.7478°N, 86.6215°W
Report Text: KDCY 240355Z AUTO 22017G22KT 10SM -RA SCT007 OVC012 14/14 A2924 RMK AO2 P0005 T01400140
Loading
Personal Weather Stations






























Interactive Weather Map New forecast layout! Learn more

10-Day Weather Forecast

Advertisements
Track Severe Weather on mobile